Wilson Mersin — P3PA6 — position and weather

sailwx.info

Track history (hours):
 
Tides and Currents Weather Stations Pressure Air Temp Water Temp Dewpoint Dewpoint Depression Visibility Wind Speed Wind Dir Waves Ship Positions

Wilson Mersin

Last reported at 2016-Dec-03 22:33 UTC. Time now 2016-Dec-04 06:11 UTC.
Position N 55°16' E 012°48'.

Length 107 m; draft 7 m.

Type: Cargo ship. MMSI: 210072000.

Date/timePositionNaut miles runAvg speedWind from/ knotsBaromVisibWave heightAir tempDewpointWater temp
2016-Dec-03 22:33N 55°16' E 012°48'9 9.1
2016-Dec-03 21:32N 55°23' E 012°39'1110.9
2016-Dec-03 20:33N 55°34' E 012°42'1110.6
2016-Dec-03 19:33N 55°45' E 012°41'1211.8
2016-Dec-03 18:34N 55°56' E 012°38'1110.7
2016-Dec-03 17:33N 56°06' E 012°32'1212.3
2016-Dec-03 16:33N 56°14' E 012°14'6112.2
2016-Dec-03 11:32N 57°11' E 011°35'1212.8
2016-Dec-03 10:33N 57°23' E 011°28'1212.4
2016-Dec-03 09:33N 57°33' E 011°14'1312.6
2016-Dec-03 08:33N 57°41' E 010°57'1212.0
2016-Dec-03 07:33N 57°47' E 010°38'10635.3
2016-Dec-03 04:33N 57°54' E 007°19'9 8.5
2016-Dec-03 03:33N 57°55' E 007°03'8 8.4
2016-Dec-03 02:33N 57°56' E 006°47'8 7.9
2016-Dec-03 01:33N 57°58' E 006°33'9 8.6
2016-Dec-03 00:32N 58°06' E 006°24'8 8.5
2016-Dec-02 23:34N 58°13' E 006°16'3329.2
2016-Dec-02 22:27N 57°55' E 007°07'1112.2
2016-Dec-02 21:33N 57°56' E 006°46'1510.9
2016-Dec-02 20:09N 58°06' E 006°24'712.3
2016-Dec-02 19:33N 58°12' E 006°17'7 3.6
2016-Dec-02 17:31N 58°19' E 006°21'311158.2
2016-Dec-02 15:33N 63°19' E 009°09'0 0.0
2016-Dec-02 14:31N 63°19' E 009°09'0 0.0
2016-Dec-02 13:33N 63°19' E 009°09'0 0.0
2016-Dec-02 12:30N 63°19' E 009°09'0 0.0
2016-Dec-02 11:32N 63°19' E 009°09'0 0.0
2016-Dec-02 10:20N 63°19' E 009°09'313397.2
2016-Dec-02 09:33N 58°21' E 005°54'6 6.0
2016-Dec-02 08:32N 58°24' E 005°45'6 6.1
2016-Dec-02 07:32N 58°28' E 005°36'6 6.2
2016-Dec-02 06:30N 58°34' E 005°29'2524.3
2016-Dec-02 05:29N 58°19' E 006°07'8 8.4
2016-Dec-02 04:33N 58°21' E 005°52'10 8.6
2016-Dec-02 03:26N 58°27' E 005°38'9 9.9
2016-Dec-02 02:33N 58°34' E 005°28'1110.8
2016-Dec-02 01:34N 58°43' E 005°16'1010.3
2016-Dec-02 00:34N 58°51' E 005°04'293256.9
2016-Dec-01 23:25N 63°19' E 009°09'0 0.0
2016-Dec-01 22:30N 63°19' E 009°09'0 0.0
2016-Dec-01 21:30N 63°19' E 009°09'0 0.0
2016-Dec-01 20:30N 63°19' E 009°09'0 0.0
2016-Dec-01 19:30N 63°19' E 009°09'0 0.0
2016-Dec-01 18:33N 63°19' E 009°09'0 0.0
2016-Dec-01 17:30N 63°19' E 009°09'0 0.0
2016-Dec-01 16:33N 63°19' E 009°09'0 0.0
2016-Dec-01 15:32N 63°19' E 009°09'0 0.0
2016-Dec-01 14:28N 63°19' E 009°09'0 0.0
2016-Dec-01 13:29N 63°19' E 009°09'0 0.0
2016-Dec-01 12:31N 63°19' E 009°09'0 0.0
2016-Dec-01 11:32N 63°19' E 009°09'0 0.0
2016-Dec-01 10:30N 63°19' E 009°09'0 0.0
2016-Dec-01 09:33N 63°19' E 009°09'0 0.0
2016-Dec-01 08:33N 63°19' E 009°09'0 0.0
2016-Dec-01 07:30N 63°19' E 009°09'133121.2
2016-Dec-01 06:24N 62°12' E 004°58'1011.6
2016-Dec-01 05:33N 62°20' E 005°10'1211.3
2016-Dec-01 04:31N 62°29' E 005°25'113101.8
2016-Dec-01 03:25N 63°19' E 009°09'95106.0
2016-Dec-01 02:31N 62°47' E 005°52'9597.2
2016-Dec-01 01:33N 63°19' E 009°09'0 0.0
2016-Dec-01 00:33N 63°19' E 009°09'0 0.0
2016-Nov-30 23:32N 63°19' E 009°09'0 0.0
2016-Nov-30 22:30N 63°19' E 009°09'4447.1
2016-Nov-30 21:33N 63°15' E 007°31'1010.2
2016-Nov-30 20:34N 63°13' E 007°53'3332.7
2016-Nov-30 19:33N 63°28' E 008°57'9 8.7
2016-Nov-30 18:33N 63°25' E 008°39'1211.9
2016-Nov-30 17:33N 63°28' E 009°04'2827.4
2016-Nov-30 16:32N 63°16' E 008°08'9 9.3
2016-Nov-30 15:33N 63°13' E 007°49'5 5.1
2016-Nov-30 14:33N 63°14' E 007°39'9 8.6
2016-Nov-30 13:32N 63°15' E 007°19'17 8.7
2016-Nov-30 11:33N 63°05' E 006°48'8 8.0
2016-Nov-30 10:33N 62°60' E 006°35'9 9.2
2016-Nov-30 09:33N 62°54' E 006°20'10 9.9
2016-Nov-30 08:33N 62°47' E 006°04'9 9.1
2016-Nov-30 07:33N 62°41' E 005°49'9 9.0
2016-Nov-30 06:33N 62°35' E 005°34'9 8.8
2016-Nov-30 05:33N 62°28' E 005°23'8 8.2
2016-Nov-30 04:33N 62°21' E 005°12'9 8.8
2016-Nov-30 03:33N 62°14' E 005°01'8 8.0
2016-Nov-30 02:33N 62°08' E 004°51'8 8.5
2016-Nov-30 01:33N 62°01' E 004°40'8 8.5
2016-Nov-30 00:33N 61°54' E 004°30'34 7.9
2016-Nov-29 20:17N 61°20' E 004°18'6 7.7
2016-Nov-29 19:32N 61°15' E 004°17'7 7.4
2016-Nov-29 18:33N 61°07' E 004°16'7 6.7
2016-Nov-29 17:32N 61°01' E 004°15'195 6.7
2016-Nov-28 12:21N 63°20' E 009°09'7 7.6
2016-Nov-28 11:27N 63°26' E 009°07'2511.4
2016-Nov-28 09:15N 63°18' E 008°14'912.9
2016-Nov-28 08:33N 63°13' E 007°57'9 9.5
2016-Nov-28 07:33N 63°15' E 007°36'1212.0
2016-Nov-28 06:33N 63°14' E 007°10'5212.9
2016-Nov-28 02:33N 62°39' E 005°45'1212.5
2016-Nov-28 01:33N 62°30' E 005°26'1211.9
2016-Nov-28 00:33N 62°21' E 005°11'1211.7
2016-Nov-27 23:33N 62°11' E 004°57'178 9.6
2016-Nov-27 05:04N 59°14' E 004°42'4 7.3
2016-Nov-27 04:33N 59°10' E 004°43'7 7.4
2016-Nov-27 03:33N 59°03' E 004°47'8 7.9
2016-Nov-27 02:33N 58°55' E 004°51'8 8.4
2016-Nov-27 01:33N 58°47' E 004°55'9 8.6
2016-Nov-27 00:33N 58°39' E 004°59'8 8.5
2016-Nov-26 23:33N 58°31' E 005°03'253 9.7
2016-Nov-25 21:31N 54°18' E 005°09'1211.5
2016-Nov-25 20:29N 54°06' E 005°07'1111.4
2016-Nov-25 19:32N 53°55' E 005°02'2611.1
2016-Nov-25 17:13N 53°31' E 004°48'711.5
2016-Nov-25 16:33N 53°24' E 004°41'1411.7
2016-Nov-25 15:23N 53°12' E 004°32'1011.6
2016-Nov-25 14:33N 53°03' E 004°25'1211.9
2016-Nov-25 13:33N 52°53' E 004°16'1211.7
2016-Nov-25 12:33N 52°42' E 004°07'1110.9
2016-Nov-25 11:33N 52°32' E 004°12'1111.4
2016-Nov-25 10:33N 52°29' E 004°30'6 5.7
2016-Nov-25 09:33N 52°28' E 004°39'6 5.8
2016-Nov-25 08:30N 52°24' E 004°47'0 0.0
2016-Nov-25 07:33N 52°24' E 004°47'0 0.0
2016-Nov-25 06:33N 52°24' E 004°47'0 0.0
2016-Nov-25 05:30N 52°24' E 004°47'0 0.0
2016-Nov-25 04:33N 52°24' E 004°47'0 0.0
2016-Nov-25 03:33N 52°24' E 004°47'0 0.0
2016-Nov-25 02:33N 52°24' E 004°47'0 0.0
2016-Nov-25 01:21N 52°24' E 004°47'0 0.0
2016-Nov-25 00:27N 52°24' E 004°47'0 0.0
2016-Nov-24 23:33N 52°24' E 004°47'0 0.0
2016-Nov-24 22:33N 52°24' E 004°47'0 0.0
2016-Nov-24 21:33N 52°24' E 004°47'0 0.0
2016-Nov-24 20:33N 52°24' E 004°47'0 0.0
2016-Nov-24 19:33N 52°24' E 004°47'0 0.0
2016-Nov-24 18:27N 52°24' E 004°47'0 0.0
2016-Nov-24 17:30N 52°24' E 004°47'0 0.0
2016-Nov-24 16:33N 52°24' E 004°47'0 0.0
2016-Nov-24 15:33N 52°24' E 004°47'0 0.0
2016-Nov-24 14:27N 52°24' E 004°47'0 0.0
2016-Nov-24 13:30N 52°24' E 004°47'0 0.0
2016-Nov-24 12:33N 52°24' E 004°47'0 0.0
2016-Nov-24 11:30N 52°24' E 004°47'0 0.0
2016-Nov-24 10:33N 52°24' E 004°47'0 0.0
2016-Nov-24 09:33N 52°24' E 004°47'0 0.0
2016-Nov-24 08:33N 52°24' E 004°47'0 0.0
2016-Nov-24 07:33N 52°24' E 004°47'0 0.0
2016-Nov-24 06:33N 52°24' E 004°47'0 0.0
2016-Nov-24 05:33N 52°24' E 004°47'0 0.0
2016-Nov-24 04:33N 52°24' E 004°47'0 0.0
2016-Nov-24 03:33N 52°24' E 004°47'0 0.0
2016-Nov-24 02:33N 52°24' E 004°47'0 0.0
2016-Nov-24 01:33N 52°24' E 004°47'0 0.0
2016-Nov-24 00:30N 52°24' E 004°47'0 0.0
2016-Nov-23 23:33N 52°24' E 004°47'0 0.0
2016-Nov-23 22:33N 52°24' E 004°47'  
Track history (hours):
 
Tides and Currents Weather Stations Pressure Air Temp Water Temp Dewpoint Dewpoint Depression Visibility Wind Speed Wind Dir Waves Ship Positions

Wilson Mersin

Last reported at 2016-Dec-03 22:33 UTC. Time now 2016-Dec-04 06:11 UTC.
Position N 55°16' E 012°48'.

Length 107 m; draft 7 m.

Type: Cargo ship. MMSI: 210072000.

Date/timePositionNaut miles runAvg speedWind from/ knotsBaromVisibWave heightAir tempDewpointWater temp
2016-Dec-03 22:33N 55°16' E 012°48'9 9.1
2016-Dec-03 21:32N 55°23' E 012°39'1110.9
2016-Dec-03 20:33N 55°34' E 012°42'1110.6
2016-Dec-03 19:33N 55°45' E 012°41'1211.8
2016-Dec-03 18:34N 55°56' E 012°38'1110.7
2016-Dec-03 17:33N 56°06' E 012°32'1212.3
2016-Dec-03 16:33N 56°14' E 012°14'6112.2
2016-Dec-03 11:32N 57°11' E 011°35'1212.8
2016-Dec-03 10:33N 57°23' E 011°28'1212.4
2016-Dec-03 09:33N 57°33' E 011°14'1312.6
2016-Dec-03 08:33N 57°41' E 010°57'1212.0
2016-Dec-03 07:33N 57°47' E 010°38'10635.3
2016-Dec-03 04:33N 57°54' E 007°19'9 8.5
2016-Dec-03 03:33N 57°55' E 007°03'8 8.4
2016-Dec-03 02:33N 57°56' E 006°47'8 7.9
2016-Dec-03 01:33N 57°58' E 006°33'9 8.6
2016-Dec-03 00:32N 58°06' E 006°24'8 8.5
2016-Dec-02 23:34N 58°13' E 006°16'3329.2
2016-Dec-02 22:27N 57°55' E 007°07'1112.2
2016-Dec-02 21:33N 57°56' E 006°46'1510.9
2016-Dec-02 20:09N 58°06' E 006°24'712.3
2016-Dec-02 19:33N 58°12' E 006°17'7 3.6
2016-Dec-02 17:31N 58°19' E 006°21'311158.2
2016-Dec-02 15:33N 63°19' E 009°09'0 0.0
2016-Dec-02 14:31N 63°19' E 009°09'0 0.0
2016-Dec-02 13:33N 63°19' E 009°09'0 0.0
2016-Dec-02 12:30N 63°19' E 009°09'0 0.0
2016-Dec-02 11:32N 63°19' E 009°09'0 0.0
2016-Dec-02 10:20N 63°19' E 009°09'313397.2
2016-Dec-02 09:33N 58°21' E 005°54'6 6.0
2016-Dec-02 08:32N 58°24' E 005°45'6 6.1
2016-Dec-02 07:32N 58°28' E 005°36'6 6.2
2016-Dec-02 06:30N 58°34' E 005°29'2524.3
2016-Dec-02 05:29N 58°19' E 006°07'8 8.4
2016-Dec-02 04:33N 58°21' E 005°52'10 8.6
2016-Dec-02 03:26N 58°27' E 005°38'9 9.9
2016-Dec-02 02:33N 58°34' E 005°28'1110.8
2016-Dec-02 01:34N 58°43' E 005°16'1010.3
2016-Dec-02 00:34N 58°51' E 005°04'293256.9
2016-Dec-01 23:25N 63°19' E 009°09'0 0.0
2016-Dec-01 22:30N 63°19' E 009°09'0 0.0
2016-Dec-01 21:30N 63°19' E 009°09'0 0.0
2016-Dec-01 20:30N 63°19' E 009°09'0 0.0
2016-Dec-01 19:30N 63°19' E 009°09'0 0.0
2016-Dec-01 18:33N 63°19' E 009°09'0 0.0
2016-Dec-01 17:30N 63°19' E 009°09'0 0.0
2016-Dec-01 16:33N 63°19' E 009°09'0 0.0
2016-Dec-01 15:32N 63°19' E 009°09'0 0.0
2016-Dec-01 14:28N 63°19' E 009°09'0 0.0
2016-Dec-01 13:29N 63°19' E 009°09'0 0.0
2016-Dec-01 12:31N 63°19' E 009°09'0 0.0
2016-Dec-01 11:32N 63°19' E 009°09'0 0.0
2016-Dec-01 10:30N 63°19' E 009°09'0 0.0
2016-Dec-01 09:33N 63°19' E 009°09'0 0.0
2016-Dec-01 08:33N 63°19' E 009°09'0 0.0
2016-Dec-01 07:30N 63°19' E 009°09'133121.2
2016-Dec-01 06:24N 62°12' E 004°58'1011.6
2016-Dec-01 05:33N 62°20' E 005°10'1211.3
2016-Dec-01 04:31N 62°29' E 005°25'113101.8
2016-Dec-01 03:25N 63°19' E 009°09'95106.0
2016-Dec-01 02:31N 62°47' E 005°52'9597.2
2016-Dec-01 01:33N 63°19' E 009°09'0 0.0
2016-Dec-01 00:33N 63°19' E 009°09'0 0.0
2016-Nov-30 23:32N 63°19' E 009°09'0 0.0
2016-Nov-30 22:30N 63°19' E 009°09'4447.1
2016-Nov-30 21:33N 63°15' E 007°31'1010.2
2016-Nov-30 20:34N 63°13' E 007°53'3332.7
2016-Nov-30 19:33N 63°28' E 008°57'9 8.7
2016-Nov-30 18:33N 63°25' E 008°39'1211.9
2016-Nov-30 17:33N 63°28' E 009°04'2827.4
2016-Nov-30 16:32N 63°16' E 008°08'9 9.3
2016-Nov-30 15:33N 63°13' E 007°49'5 5.1
2016-Nov-30 14:33N 63°14' E 007°39'9 8.6
2016-Nov-30 13:32N 63°15' E 007°19'17 8.7
2016-Nov-30 11:33N 63°05' E 006°48'8 8.0
2016-Nov-30 10:33N 62°60' E 006°35'9 9.2
2016-Nov-30 09:33N 62°54' E 006°20'10 9.9
2016-Nov-30 08:33N 62°47' E 006°04'9 9.1
2016-Nov-30 07:33N 62°41' E 005°49'9 9.0
2016-Nov-30 06:33N 62°35' E 005°34'9 8.8
2016-Nov-30 05:33N 62°28' E 005°23'8 8.2
2016-Nov-30 04:33N 62°21' E 005°12'9 8.8
2016-Nov-30 03:33N 62°14' E 005°01'8 8.0
2016-Nov-30 02:33N 62°08' E 004°51'8 8.5
2016-Nov-30 01:33N 62°01' E 004°40'8 8.5
2016-Nov-30 00:33N 61°54' E 004°30'34 7.9
2016-Nov-29 20:17N 61°20' E 004°18'6 7.7
2016-Nov-29 19:32N 61°15' E 004°17'7 7.4
2016-Nov-29 18:33N 61°07' E 004°16'7 6.7
2016-Nov-29 17:32N 61°01' E 004°15'195 6.7
2016-Nov-28 12:21N 63°20' E 009°09'7 7.6
2016-Nov-28 11:27N 63°26' E 009°07'2511.4
2016-Nov-28 09:15N 63°18' E 008°14'912.9
2016-Nov-28 08:33N 63°13' E 007°57'9 9.5
2016-Nov-28 07:33N 63°15' E 007°36'1212.0
2016-Nov-28 06:33N 63°14' E 007°10'5212.9
2016-Nov-28 02:33N 62°39' E 005°45'1212.5
2016-Nov-28 01:33N 62°30' E 005°26'1211.9
2016-Nov-28 00:33N 62°21' E 005°11'1211.7
2016-Nov-27 23:33N 62°11' E 004°57'178 9.6
2016-Nov-27 05:04N 59°14' E 004°42'4 7.3
2016-Nov-27 04:33N 59°10' E 004°43'7 7.4
2016-Nov-27 03:33N 59°03' E 004°47'8 7.9
2016-Nov-27 02:33N 58°55' E 004°51'8 8.4
2016-Nov-27 01:33N 58°47' E 004°55'9 8.6
2016-Nov-27 00:33N 58°39' E 004°59'8 8.5
2016-Nov-26 23:33N 58°31' E 005°03'253 9.7
2016-Nov-25 21:31N 54°18' E 005°09'1211.5
2016-Nov-25 20:29N 54°06' E 005°07'1111.4
2016-Nov-25 19:32N 53°55' E 005°02'2611.1
2016-Nov-25 17:13N 53°31' E 004°48'711.5
2016-Nov-25 16:33N 53°24' E 004°41'1411.7
2016-Nov-25 15:23N 53°12' E 004°32'1011.6
2016-Nov-25 14:33N 53°03' E 004°25'1211.9
2016-Nov-25 13:33N 52°53' E 004°16'1211.7
2016-Nov-25 12:33N 52°42' E 004°07'1110.9
2016-Nov-25 11:33N 52°32' E 004°12'1111.4
2016-Nov-25 10:33N 52°29' E 004°30'6 5.7
2016-Nov-25 09:33N 52°28' E 004°39'6 5.8
2016-Nov-25 08:30N 52°24' E 004°47'0 0.0
2016-Nov-25 07:33N 52°24' E 004°47'0 0.0
2016-Nov-25 06:33N 52°24' E 004°47'0 0.0
2016-Nov-25 05:30N 52°24' E 004°47'0 0.0
2016-Nov-25 04:33N 52°24' E 004°47'0 0.0
2016-Nov-25 03:33N 52°24' E 004°47'0 0.0
2016-Nov-25 02:33N 52°24' E 004°47'0 0.0
2016-Nov-25 01:21N 52°24' E 004°47'0 0.0
2016-Nov-25 00:27N 52°24' E 004°47'0 0.0
2016-Nov-24 23:33N 52°24' E 004°47'0 0.0
2016-Nov-24 22:33N 52°24' E 004°47'0 0.0
2016-Nov-24 21:33N 52°24' E 004°47'0 0.0
2016-Nov-24 20:33N 52°24' E 004°47'0 0.0
2016-Nov-24 19:33N 52°24' E 004°47'0 0.0
2016-Nov-24 18:27N 52°24' E 004°47'0 0.0
2016-Nov-24 17:30N 52°24' E 004°47'0 0.0
2016-Nov-24 16:33N 52°24' E 004°47'0 0.0
2016-Nov-24 15:33N 52°24' E 004°47'0 0.0
2016-Nov-24 14:27N 52°24' E 004°47'0 0.0
2016-Nov-24 13:30N 52°24' E 004°47'0 0.0
2016-Nov-24 12:33N 52°24' E 004°47'0 0.0
2016-Nov-24 11:30N 52°24' E 004°47'0 0.0
2016-Nov-24 10:33N 52°24' E 004°47'0 0.0
2016-Nov-24 09:33N 52°24' E 004°47'0 0.0
2016-Nov-24 08:33N 52°24' E 004°47'0 0.0
2016-Nov-24 07:33N 52°24' E 004°47'0 0.0
2016-Nov-24 06:33N 52°24' E 004°47'0 0.0
2016-Nov-24 05:33N 52°24' E 004°47'0 0.0
2016-Nov-24 04:33N 52°24' E 004°47'0 0.0
2016-Nov-24 03:33N 52°24' E 004°47'0 0.0
2016-Nov-24 02:33N 52°24' E 004°47'0 0.0
2016-Nov-24 01:33N 52°24' E 004°47'0 0.0
2016-Nov-24 00:30N 52°24' E 004°47'0 0.0
2016-Nov-23 23:33N 52°24' E 004°47'0 0.0
2016-Nov-23 22:33N 52°24' E 004°47'  

Dump ship's entire track history